sensor_id;sensor_type;location;lat;lon;timestamp;pressure;altitude;pressure_sealevel;temperature;humidity
18850;BME280;4989;48.772;9.154;2023-05-07T00:02:41;97893.44;;;18.59;71.00
18850;BME280;4989;48.772;9.154;2023-05-07T00:07:43;97886.81;;;18.51;72.27
18850;BME280;4989;48.772;9.154;2023-05-07T00:12:46;97885.84;;;18.54;72.23
18850;BME280;4989;48.772;9.154;2023-05-07T00:17:48;97886.09;;;18.36;73.24
18850;BME280;4989;48.772;9.154;2023-05-07T00:22:51;97889.75;;;18.77;73.31
18850;BME280;4989;48.772;9.154;2023-05-07T00:27:53;97883.63;;;19.08;73.37
18850;BME280;4989;48.772;9.154;2023-05-07T00:32:55;97878.75;;;18.97;71.70
18850;BME280;4989;48.772;9.154;2023-05-07T00:37:57;97874.50;;;18.82;72.37
18850;BME280;4989;48.772;9.154;2023-05-07T00:43:00;97866.53;;;18.84;73.84
18850;BME280;4989;48.772;9.154;2023-05-07T00:48:03;97865.81;;;18.68;72.81
18850;BME280;4989;48.772;9.154;2023-05-07T00:53:06;97864.63;;;18.90;72.93
18850;BME280;4989;48.772;9.154;2023-05-07T00:58:09;97863.47;;;18.61;74.66
18850;BME280;4989;48.772;9.154;2023-05-07T01:03:11;97857.72;;;18.80;75.59
18850;BME280;4989;48.772;9.154;2023-05-07T01:08:15;97856.69;;;18.77;73.80
18850;BME280;4989;48.772;9.154;2023-05-07T01:13:19;97861.59;;;18.38;73.69
18850;BME280;4989;48.772;9.154;2023-05-07T01:18:22;97861.41;;;18.26;76.62
18850;BME280;4989;48.772;9.154;2023-05-07T01:23:27;97856.81;;;18.53;76.74
18850;BME280;4989;48.772;9.154;2023-05-07T01:28:29;97853.19;;;18.76;73.82
18850;BME280;4989;48.772;9.154;2023-05-07T01:33:37;97860.00;;;18.66;73.49
18850;BME280;4989;48.772;9.154;2023-05-07T01:38:41;97855.50;;;18.48;73.85
18850;BME280;4989;48.772;9.154;2023-05-07T01:43:46;97854.78;;;18.18;77.81
18850;BME280;4989;48.772;9.154;2023-05-07T01:48:50;97857.13;;;18.40;75.94
18850;BME280;4989;48.772;9.154;2023-05-07T01:53:53;97852.44;;;18.61;75.01
18850;BME280;4989;48.772;9.154;2023-05-07T01:58:55;97848.03;;;18.34;75.69
18850;BME280;4989;48.772;9.154;2023-05-07T02:03:57;97852.03;;;18.68;75.29
18850;BME280;4989;48.772;9.154;2023-05-07T02:09:03;97854.50;;;18.66;74.26
18850;BME280;4989;48.772;9.154;2023-05-07T02:14:05;97862.72;;;18.46;73.80
18850;BME280;4989;48.772;9.154;2023-05-07T02:19:07;97854.69;;;18.27;74.61
18850;BME280;4989;48.772;9.154;2023-05-07T02:24:10;97862.38;;;17.94;76.75
18850;BME280;4989;48.772;9.154;2023-05-07T02:29:12;97865.34;;;17.51;79.39
18850;BME280;4989;48.772;9.154;2023-05-07T02:34:16;97848.09;;;17.51;80.51
18850;BME280;4989;48.772;9.154;2023-05-07T02:39:19;97857.28;;;17.87;81.36
18850;BME280;4989;48.772;9.154;2023-05-07T02:44:21;97859.38;;;17.92;78.19
18850;BME280;4989;48.772;9.154;2023-05-07T02:49:25;97849.56;;;18.20;78.38
18850;BME280;4989;48.772;9.154;2023-05-07T02:54:28;97852.63;;;18.22;76.34
18850;BME280;4989;48.772;9.154;2023-05-07T02:59:30;97857.94;;;17.28;79.85
18850;BME280;4989;48.772;9.154;2023-05-07T03:04:33;97848.66;;;16.77;83.79
18850;BME280;4989;48.772;9.154;2023-05-07T03:09:35;97833.56;;;17.21;82.33
18850;BME280;4989;48.772;9.154;2023-05-07T03:14:38;97824.25;;;17.72;83.36
18850;BME280;4989;48.772;9.154;2023-05-07T03:19:40;97825.38;;;17.65;80.09
18850;BME280;4989;48.772;9.154;2023-05-07T03:24:42;97828.44;;;17.67;80.28
18850;BME280;4989;48.772;9.154;2023-05-07T03:29:44;97831.44;;;17.69;77.51
18850;BME280;4989;48.772;9.154;2023-05-07T03:34:46;97833.72;;;17.56;77.64
18850;BME280;4989;48.772;9.154;2023-05-07T03:39:49;97839.38;;;17.37;78.28
18850;BME280;4989;48.772;9.154;2023-05-07T03:44:52;97840.47;;;17.16;80.76
18850;BME280;4989;48.772;9.154;2023-05-07T03:49:55;97842.72;;;17.17;80.46
18850;BME280;4989;48.772;9.154;2023-05-07T03:54:59;97839.78;;;17.60;79.73
18850;BME280;4989;48.772;9.154;2023-05-07T04:00:02;97843.56;;;17.48;79.54
18850;BME280;4989;48.772;9.154;2023-05-07T04:05:10;97843.34;;;17.36;78.40
18850;BME280;4989;48.772;9.154;2023-05-07T04:10:14;97851.28;;;16.96;78.71
18850;BME280;4989;48.772;9.154;2023-05-07T04:15:19;97859.22;;;16.93;80.49
18850;BME280;4989;48.772;9.154;2023-05-07T04:20:21;97849.16;;;17.53;82.24
18850;BME280;4989;48.772;9.154;2023-05-07T04:25:30;97854.47;;;17.72;78.24
18850;BME280;4989;48.772;9.154;2023-05-07T04:30:41;97867.56;;;17.62;78.68
18850;BME280;4989;48.772;9.154;2023-05-07T04:35:45;97869.22;;;17.45;77.22
18850;BME280;4989;48.772;9.154;2023-05-07T04:40:49;97864.84;;;16.66;82.22
18850;BME280;4989;48.772;9.154;2023-05-07T04:45:55;97869.88;;;17.01;83.26
18850;BME280;4989;48.772;9.154;2023-05-07T04:51:00;97871.19;;;17.29;81.42
18850;BME280;4989;48.772;9.154;2023-05-07T04:56:03;97874.22;;;17.70;82.05
18850;BME280;4989;48.772;9.154;2023-05-07T05:01:12;97868.28;;;17.87;78.25
18850;BME280;4989;48.772;9.154;2023-05-07T05:06:15;97889.03;;;17.49;78.13
18850;BME280;4989;48.772;9.154;2023-05-07T05:11:17;97896.66;;;17.06;79.90
18850;BME280;4989;48.772;9.154;2023-05-07T05:16:20;97891.78;;;16.43;83.96
18850;BME280;4989;48.772;9.154;2023-05-07T05:21:23;97890.09;;;16.79;85.86
18850;BME280;4989;48.772;9.154;2023-05-07T05:26:29;97894.53;;;17.49;81.30
18850;BME280;4989;48.772;9.154;2023-05-07T05:31:32;97912.09;;;17.27;82.75
18850;BME280;4989;48.772;9.154;2023-05-07T05:36:35;97903.72;;;17.84;80.61
18850;BME280;4989;48.772;9.154;2023-05-07T05:41:38;97898.22;;;18.44;77.96
18850;BME280;4989;48.772;9.154;2023-05-07T05:46:42;97891.13;;;18.72;74.92
18850;BME280;4989;48.772;9.154;2023-05-07T05:51:45;97896.19;;;18.74;75.11
18850;BME280;4989;48.772;9.154;2023-05-07T05:56:49;97901.31;;;18.66;74.86
18850;BME280;4989;48.772;9.154;2023-05-07T06:01:51;97906.00;;;18.95;76.10
18850;BME280;4989;48.772;9.154;2023-05-07T06:06:54;97908.34;;;19.03;71.93
18850;BME280;4989;48.772;9.154;2023-05-07T06:11:57;97917.97;;;19.28;71.80
18850;BME280;4989;48.772;9.154;2023-05-07T06:17:04;97913.81;;;19.58;70.37
18850;BME280;4989;48.772;9.154;2023-05-07T06:22:07;97909.53;;;19.78;72.18
18850;BME280;4989;48.772;9.154;2023-05-07T06:27:10;97906.50;;;19.76;71.03
18850;BME280;4989;48.772;9.154;2023-05-07T06:32:13;97916.84;;;19.81;70.61
18850;BME280;4989;48.772;9.154;2023-05-07T06:37:18;97921.22;;;19.93;70.69
18850;BME280;4989;48.772;9.154;2023-05-07T06:42:29;97921.38;;;19.63;68.42
18850;BME280;4989;48.772;9.154;2023-05-07T06:47:34;97922.78;;;19.53;69.58
18850;BME280;4989;48.772;9.154;2023-05-07T06:52:37;97917.72;;;20.19;68.82
18850;BME280;4989;48.772;9.154;2023-05-07T06:57:40;97926.53;;;20.86;66.21
18850;BME280;4989;48.772;9.154;2023-05-07T07:02:42;97922.47;;;21.30;63.71
18850;BME280;4989;48.772;9.154;2023-05-07T07:07:47;97923.22;;;21.79;63.77
18850;BME280;4989;48.772;9.154;2023-05-07T07:12:55;97921.72;;;21.89;64.32
18850;BME280;4989;48.772;9.154;2023-05-07T07:17:58;97919.00;;;22.12;59.79
18850;BME280;4989;48.772;9.154;2023-05-07T07:23:00;97917.22;;;22.03;63.11
18850;BME280;4989;48.772;9.154;2023-05-07T07:28:02;97912.75;;;22.45;61.98
18850;BME280;4989;48.772;9.154;2023-05-07T07:33:05;97912.94;;;22.98;58.83
18850;BME280;4989;48.772;9.154;2023-05-07T07:38:10;97903.81;;;23.14;58.04
18850;BME280;4989;48.772;9.154;2023-05-07T07:49:42;97917.72;;;23.67;55.48
18850;BME280;4989;48.772;9.154;2023-05-07T07:54:45;97912.66;;;23.76;57.15
18850;BME280;4989;48.772;9.154;2023-05-07T07:59:49;97912.50;;;23.99;58.52
18850;BME280;4989;48.772;9.154;2023-05-07T08:04:53;97910.78;;;23.90;58.14
18850;BME280;4989;48.772;9.154;2023-05-07T08:09:55;97909.50;;;23.97;56.01
18850;BME280;4989;48.772;9.154;2023-05-07T08:14:59;97913.56;;;23.90;57.24
18850;BME280;4989;48.772;9.154;2023-05-07T08:20:02;97915.84;;;24.28;55.47
18850;BME280;4989;48.772;9.154;2023-05-07T08:25:05;97917.28;;;25.44;53.05
18850;BME280;4989;48.772;9.154;2023-05-07T08:30:08;97909.66;;;26.20;53.57
18850;BME280;4989;48.772;9.154;2023-05-07T08:35:11;97915.59;;;25.97;51.42
18850;BME280;4989;48.772;9.154;2023-05-07T08:40:14;97901.13;;;25.80;52.10
18850;BME280;4989;48.772;9.154;2023-05-07T08:45:19;97918.41;;;24.86;52.06
18850;BME280;4989;48.772;9.154;2023-05-07T08:50:25;97920.03;;;25.25;52.08
18850;BME280;4989;48.772;9.154;2023-05-07T08:55:29;97921.78;;;27.00;49.06
18850;BME280;4989;48.772;9.154;2023-05-07T09:00:33;97924.06;;;27.28;47.39
18850;BME280;4989;48.772;9.154;2023-05-07T09:05:36;97922.94;;;27.05;47.17
18850;BME280;4989;48.772;9.154;2023-05-07T09:10:41;97909.75;;;27.32;47.38
18850;BME280;4989;48.772;9.154;2023-05-07T09:15:44;97910.13;;;28.10;45.21
18850;BME280;4989;48.772;9.154;2023-05-07T09:20:47;97900.72;;;28.84;43.80
18850;BME280;4989;48.772;9.154;2023-05-07T09:26:00;97896.13;;;29.22;43.23
18850;BME280;4989;48.772;9.154;2023-05-07T09:31:08;97893.44;;;28.39;43.14
18850;BME280;4989;48.772;9.154;2023-05-07T09:36:10;97889.13;;;28.80;42.73
18850;BME280;4989;48.772;9.154;2023-05-07T09:41:15;97887.66;;;29.51;41.24
18850;BME280;4989;48.772;9.154;2023-05-07T09:46:30;97887.66;;;29.51;41.30
18850;BME280;4989;48.772;9.154;2023-05-07T09:51:48;97892.66;;;29.89;39.89
18850;BME280;4989;48.772;9.154;2023-05-07T09:56:53;97890.78;;;29.84;40.39
18850;BME280;4989;48.772;9.154;2023-05-07T10:02:01;97887.16;;;30.35;40.08
18850;BME280;4989;48.772;9.154;2023-05-07T10:07:09;97884.47;;;30.06;40.03
18850;BME280;4989;48.772;9.154;2023-05-07T10:12:12;97879.66;;;29.11;41.97
18850;BME280;4989;48.772;9.154;2023-05-07T10:17:16;97865.28;;;30.41;39.84
18850;BME280;4989;48.772;9.154;2023-05-07T10:22:22;97869.56;;;30.50;40.22
18850;BME280;4989;48.772;9.154;2023-05-07T10:27:25;97856.34;;;31.29;37.35
18850;BME280;4989;48.772;9.154;2023-05-07T10:32:53;97849.66;;;29.79;40.13
18850;BME280;4989;48.772;9.154;2023-05-07T10:38:04;97855.72;;;32.36;37.07
18850;BME280;4989;48.772;9.154;2023-05-07T10:43:10;97839.25;;;33.10;35.68
18850;BME280;4989;48.772;9.154;2023-05-07T10:48:18;97852.66;;;31.03;38.45
18850;BME280;4989;48.772;9.154;2023-05-07T10:53:29;97839.81;;;30.54;39.50
18850;BME280;4989;48.772;9.154;2023-05-07T10:58:50;97834.69;;;33.77;35.42
18850;BME280;4989;48.772;9.154;2023-05-07T11:04:15;97832.38;;;32.86;36.79
18850;BME280;4989;48.772;9.154;2023-05-07T11:09:57;97835.63;;;29.19;39.65
18850;BME280;4989;48.772;9.154;2023-05-07T11:15:54;97829.94;;;28.47;42.65
18850;BME280;4989;48.772;9.154;2023-05-07T11:21:06;97822.66;;;27.47;49.10
18850;BME280;4989;48.772;9.154;2023-05-07T11:26:17;97821.00;;;26.50;51.12
18850;BME280;4989;48.772;9.154;2023-05-07T11:31:23;97817.00;;;26.33;52.14
18850;BME280;4989;48.772;9.154;2023-05-07T11:36:31;97818.75;;;26.03;47.26
18850;BME280;4989;48.772;9.154;2023-05-07T11:41:37;97821.03;;;25.86;48.98
18850;BME280;4989;48.772;9.154;2023-05-07T11:46:43;97814.53;;;25.78;49.11
18850;BME280;4989;48.772;9.154;2023-05-07T11:51:47;97808.88;;;25.51;55.67
18850;BME280;4989;48.772;9.154;2023-05-07T11:56:49;97824.66;;;25.05;56.04
18850;BME280;4989;48.772;9.154;2023-05-07T12:01:51;97848.59;;;24.65;59.95
18850;BME280;4989;48.772;9.154;2023-05-07T12:06:54;97853.88;;;24.08;61.53
18850;BME280;4989;48.772;9.154;2023-05-07T12:12:05;97876.94;;;23.45;67.13
18850;BME280;4989;48.772;9.154;2023-05-07T12:17:09;97881.25;;;22.31;69.68
18850;BME280;4989;48.772;9.154;2023-05-07T12:22:12;97880.16;;;21.78;74.21
18850;BME280;4989;48.772;9.154;2023-05-07T12:27:16;97886.16;;;21.60;80.51
18850;BME280;4989;48.772;9.154;2023-05-07T12:32:21;97905.59;;;20.74;97.11
18850;BME280;4989;48.772;9.154;2023-05-07T12:37:24;97939.28;;;20.78;100.00
18850;BME280;4989;48.772;9.154;2023-05-07T12:42:35;97950.88;;;19.57;100.00
18850;BME280;4989;48.772;9.154;2023-05-07T12:47:38;97970.34;;;18.77;100.00
18850;BME280;4989;48.772;9.154;2023-05-07T12:52:45;97949.09;;;18.04;100.00
18850;BME280;4989;48.772;9.154;2023-05-07T12:57:49;97942.53;;;18.01;100.00
18850;BME280;4989;48.772;9.154;2023-05-07T13:02:54;97942.34;;;18.05;100.00
18850;BME280;4989;48.772;9.154;2023-05-07T13:07:57;97952.59;;;17.66;100.00
18850;BME280;4989;48.772;9.154;2023-05-07T13:12:59;97965.88;;;17.43;100.00
18850;BME280;4989;48.772;9.154;2023-05-07T13:18:02;97977.69;;;17.34;100.00
18850;BME280;4989;48.772;9.154;2023-05-07T13:23:04;97991.13;;;17.32;100.00
18850;BME280;4989;48.772;9.154;2023-05-07T13:28:06;97990.50;;;17.37;100.00
18850;BME280;4989;48.772;9.154;2023-05-07T13:33:12;97990.19;;;17.35;100.00
18850;BME280;4989;48.772;9.154;2023-05-07T13:38:15;97976.97;;;17.49;100.00
18850;BME280;4989;48.772;9.154;2023-05-07T13:43:18;97975.44;;;17.96;100.00
18850;BME280;4989;48.772;9.154;2023-05-07T13:48:20;97949.00;;;18.28;100.00
18850;BME280;4989;48.772;9.154;2023-05-07T13:53:23;97941.72;;;18.40;100.00
18850;BME280;4989;48.772;9.154;2023-05-07T13:58:25;97921.19;;;18.41;100.00
18850;BME280;4989;48.772;9.154;2023-05-07T14:03:27;97952.91;;;17.44;100.00
18850;BME280;4989;48.772;9.154;2023-05-07T14:08:30;97955.94;;;16.98;100.00
18850;BME280;4989;48.772;9.154;2023-05-07T14:13:32;97957.81;;;16.73;100.00
18850;BME280;4989;48.772;9.154;2023-05-07T14:18:36;97965.38;;;16.45;100.00
18850;BME280;4989;48.772;9.154;2023-05-07T14:23:40;97971.06;;;16.32;100.00
18850;BME280;4989;48.772;9.154;2023-05-07T14:28:43;97968.63;;;16.25;100.00
18850;BME280;4989;48.772;9.154;2023-05-07T14:33:48;97964.34;;;16.24;100.00
18850;BME280;4989;48.772;9.154;2023-05-07T14:38:53;97958.59;;;16.22;100.00
18850;BME280;4989;48.772;9.154;2023-05-07T14:44:01;97945.75;;;16.37;100.00
18850;BME280;4989;48.772;9.154;2023-05-07T14:49:06;97943.94;;;16.34;100.00
18850;BME280;4989;48.772;9.154;2023-05-07T14:54:08;97935.41;;;16.32;100.00
18850;BME280;4989;48.772;9.154;2023-05-07T14:59:11;97922.88;;;16.40;100.00
18850;BME280;4989;48.772;9.154;2023-05-07T15:04:13;97924.63;;;16.62;100.00
18850;BME280;4989;48.772;9.154;2023-05-07T15:09:17;97921.78;;;16.89;100.00
18850;BME280;4989;48.772;9.154;2023-05-07T15:14:19;97926.69;;;17.57;100.00
18850;BME280;4989;48.772;9.154;2023-05-07T15:19:23;97939.97;;;18.27;100.00
18850;BME280;4989;48.772;9.154;2023-05-07T15:24:31;97951.00;;;18.13;100.00
18850;BME280;4989;48.772;9.154;2023-05-07T15:29:33;97949.47;;;18.26;100.00
18850;BME280;4989;48.772;9.154;2023-05-07T15:34:36;97956.06;;;18.94;100.00
18850;BME280;4989;48.772;9.154;2023-05-07T15:39:39;97959.22;;;19.63;100.00
18850;BME280;4989;48.772;9.154;2023-05-07T15:44:41;97956.28;;;19.87;100.00
18850;BME280;4989;48.772;9.154;2023-05-07T15:49:44;97957.66;;;19.77;100.00
18850;BME280;4989;48.772;9.154;2023-05-07T15:54:46;97960.25;;;19.45;100.00
18850;BME280;4989;48.772;9.154;2023-05-07T15:59:49;97969.47;;;19.01;100.00
18850;BME280;4989;48.772;9.154;2023-05-07T16:04:52;97978.94;;;19.00;100.00
18850;BME280;4989;48.772;9.154;2023-05-07T16:09:54;97993.78;;;18.88;100.00
18850;BME280;4989;48.772;9.154;2023-05-07T16:14:56;98009.25;;;19.00;100.00
18850;BME280;4989;48.772;9.154;2023-05-07T16:19:58;98013.88;;;19.44;100.00
18850;BME280;4989;48.772;9.154;2023-05-07T16:25:01;98021.91;;;19.62;100.00
18850;BME280;4989;48.772;9.154;2023-05-07T16:30:04;98035.59;;;19.92;100.00
18850;BME280;4989;48.772;9.154;2023-05-07T16:35:07;98037.09;;;20.13;100.00
18850;BME280;4989;48.772;9.154;2023-05-07T16:40:10;98031.63;;;20.19;100.00
18850;BME280;4989;48.772;9.154;2023-05-07T16:45:12;98032.81;;;20.12;100.00
18850;BME280;4989;48.772;9.154;2023-05-07T16:50:14;98028.00;;;19.87;100.00
18850;BME280;4989;48.772;9.154;2023-05-07T16:55:17;98029.78;;;20.10;100.00
18850;BME280;4989;48.772;9.154;2023-05-07T17:00:19;98035.16;;;20.20;100.00
18850;BME280;4989;48.772;9.154;2023-05-07T17:05:22;98035.28;;;20.31;100.00
18850;BME280;4989;48.772;9.154;2023-05-07T17:10:25;98039.03;;;20.54;100.00
18850;BME280;4989;48.772;9.154;2023-05-07T17:15:27;98051.91;;;20.63;100.00
18850;BME280;4989;48.772;9.154;2023-05-07T17:20:30;98045.34;;;20.60;100.00
18850;BME280;4989;48.772;9.154;2023-05-07T17:25:34;98050.41;;;20.62;100.00
18850;BME280;4989;48.772;9.154;2023-05-07T17:30:37;98045.06;;;20.52;100.00
18850;BME280;4989;48.772;9.154;2023-05-07T17:35:40;98055.34;;;20.31;100.00
18850;BME280;4989;48.772;9.154;2023-05-07T17:40:42;98050.69;;;20.43;100.00
18850;BME280;4989;48.772;9.154;2023-05-07T17:45:44;98067.06;;;20.00;100.00
18850;BME280;4989;48.772;9.154;2023-05-07T17:50:47;98072.63;;;19.50;100.00
18850;BME280;4989;48.772;9.154;2023-05-07T17:55:49;98064.06;;;19.48;100.00
18850;BME280;4989;48.772;9.154;2023-05-07T18:00:53;98067.53;;;19.63;100.00
18850;BME280;4989;48.772;9.154;2023-05-07T18:05:56;98066.06;;;19.83;100.00
18850;BME280;4989;48.772;9.154;2023-05-07T18:10:58;98076.63;;;19.49;100.00
18850;BME280;4989;48.772;9.154;2023-05-07T18:16:01;98088.94;;;19.68;100.00
18850;BME280;4989;48.772;9.154;2023-05-07T18:21:03;98093.38;;;19.81;100.00
18850;BME280;4989;48.772;9.154;2023-05-07T18:26:06;98105.44;;;19.83;100.00
18850;BME280;4989;48.772;9.154;2023-05-07T18:31:09;98120.28;;;19.86;100.00
18850;BME280;4989;48.772;9.154;2023-05-07T18:36:11;98131.03;;;19.84;100.00
18850;BME280;4989;48.772;9.154;2023-05-07T18:41:14;98136.44;;;19.93;100.00
18850;BME280;4989;48.772;9.154;2023-05-07T18:46:16;98135.25;;;20.00;100.00
18850;BME280;4989;48.772;9.154;2023-05-07T18:51:19;98121.53;;;20.05;100.00
18850;BME280;4989;48.772;9.154;2023-05-07T18:56:21;98129.22;;;19.81;100.00
18850;BME280;4989;48.772;9.154;2023-05-07T19:01:23;98138.00;;;19.79;100.00
18850;BME280;4989;48.772;9.154;2023-05-07T19:06:26;98131.06;;;20.04;100.00
18850;BME280;4989;48.772;9.154;2023-05-07T19:11:32;98149.06;;;19.64;100.00
18850;BME280;4989;48.772;9.154;2023-05-07T19:16:34;98149.47;;;18.98;100.00
18850;BME280;4989;48.772;9.154;2023-05-07T19:21:36;98152.91;;;19.08;100.00
18850;BME280;4989;48.772;9.154;2023-05-07T19:26:39;98166.78;;;19.28;100.00
18850;BME280;4989;48.772;9.154;2023-05-07T19:31:42;98173.25;;;19.10;100.00
18850;BME280;4989;48.772;9.154;2023-05-07T19:36:44;98180.06;;;18.85;100.00
18850;BME280;4989;48.772;9.154;2023-05-07T19:41:46;98197.94;;;18.42;100.00
18850;BME280;4989;48.772;9.154;2023-05-07T19:46:49;98194.88;;;17.92;100.00
18850;BME280;4989;48.772;9.154;2023-05-07T19:51:52;98206.91;;;17.61;100.00
18850;BME280;4989;48.772;9.154;2023-05-07T19:56:55;98206.59;;;17.59;100.00
18850;BME280;4989;48.772;9.154;2023-05-07T20:02:00;98210.84;;;17.60;100.00
18850;BME280;4989;48.772;9.154;2023-05-07T20:07:04;98212.41;;;17.94;100.00
18850;BME280;4989;48.772;9.154;2023-05-07T20:12:07;98224.56;;;18.12;100.00
18850;BME280;4989;48.772;9.154;2023-05-07T20:17:09;98228.88;;;18.37;100.00
18850;BME280;4989;48.772;9.154;2023-05-07T20:22:11;98228.22;;;18.66;100.00
18850;BME280;4989;48.772;9.154;2023-05-07T20:27:13;98227.56;;;18.95;100.00
18850;BME280;4989;48.772;9.154;2023-05-07T20:32:17;98218.06;;;18.72;100.00
18850;BME280;4989;48.772;9.154;2023-05-07T20:37:20;98233.50;;;18.79;100.00
18850;BME280;4989;48.772;9.154;2023-05-07T20:42:22;98228.91;;;19.14;100.00
18850;BME280;4989;48.772;9.154;2023-05-07T20:47:26;98228.72;;;19.33;100.00
18850;BME280;4989;48.772;9.154;2023-05-07T20:52:28;98236.53;;;19.49;100.00
18850;BME280;4989;48.772;9.154;2023-05-07T20:57:30;98248.13;;;19.23;100.00
18850;BME280;4989;48.772;9.154;2023-05-07T21:02:33;98248.06;;;18.94;100.00
18850;BME280;4989;48.772;9.154;2023-05-07T21:07:35;98243.88;;;18.84;100.00
18850;BME280;4989;48.772;9.154;2023-05-07T21:12:38;98253.06;;;18.81;100.00
18850;BME280;4989;48.772;9.154;2023-05-07T21:17:40;98254.41;;;18.61;100.00
18850;BME280;4989;48.772;9.154;2023-05-07T21:22:43;98252.38;;;17.80;100.00
18850;BME280;4989;48.772;9.154;2023-05-07T21:27:45;98253.38;;;17.31;100.00
18850;BME280;4989;48.772;9.154;2023-05-07T21:32:48;98251.69;;;17.34;100.00
18850;BME280;4989;48.772;9.154;2023-05-07T21:37:50;98261.34;;;16.92;100.00
18850;BME280;4989;48.772;9.154;2023-05-07T21:42:53;98260.09;;;17.03;100.00
18850;BME280;4989;48.772;9.154;2023-05-07T21:47:55;98257.66;;;17.23;100.00
18850;BME280;4989;48.772;9.154;2023-05-07T21:52:57;98256.75;;;17.08;100.00
18850;BME280;4989;48.772;9.154;2023-05-07T21:57:59;98255.38;;;17.12;100.00
18850;BME280;4989;48.772;9.154;2023-05-07T22:03:07;98256.09;;;17.40;100.00
18850;BME280;4989;48.772;9.154;2023-05-07T22:08:09;98257.09;;;17.80;100.00
18850;BME280;4989;48.772;9.154;2023-05-07T22:13:11;98254.41;;;18.04;100.00
18850;BME280;4989;48.772;9.154;2023-05-07T22:18:13;98254.28;;;18.31;100.00
18850;BME280;4989;48.772;9.154;2023-05-07T22:23:16;98255.81;;;18.81;100.00
18850;BME280;4989;48.772;9.154;2023-05-07T22:28:18;98257.63;;;18.60;100.00
18850;BME280;4989;48.772;9.154;2023-05-07T22:33:20;98252.41;;;18.38;100.00
18850;BME280;4989;48.772;9.154;2023-05-07T22:38:23;98258.59;;;18.81;100.00
18850;BME280;4989;48.772;9.154;2023-05-07T22:43:25;98255.09;;;18.95;100.00
18850;BME280;4989;48.772;9.154;2023-05-07T22:48:28;98261.75;;;18.88;100.00
18850;BME280;4989;48.772;9.154;2023-05-07T22:53:30;98253.16;;;19.10;100.00
18850;BME280;4989;48.772;9.154;2023-05-07T22:58:33;98248.31;;;18.81;100.00
18850;BME280;4989;48.772;9.154;2023-05-07T23:03:35;98251.13;;;18.96;100.00
18850;BME280;4989;48.772;9.154;2023-05-07T23:08:37;98258.97;;;19.12;100.00
18850;BME280;4989;48.772;9.154;2023-05-07T23:13:40;98257.34;;;18.82;100.00
18850;BME280;4989;48.772;9.154;2023-05-07T23:18:42;98258.16;;;18.49;100.00
18850;BME280;4989;48.772;9.154;2023-05-07T23:23:44;98248.13;;;18.13;100.00
18850;BME280;4989;48.772;9.154;2023-05-07T23:28:48;98249.84;;;18.01;100.00
18850;BME280;4989;48.772;9.154;2023-05-07T23:33:51;98250.75;;;18.07;100.00
18850;BME280;4989;48.772;9.154;2023-05-07T23:38:53;98254.28;;;17.98;100.00
18850;BME280;4989;48.772;9.154;2023-05-07T23:43:55;98246.50;;;17.97;100.00
18850;BME280;4989;48.772;9.154;2023-05-07T23:48:57;98243.03;;;18.20;100.00
18850;BME280;4989;48.772;9.154;2023-05-07T23:53:59;98246.72;;;18.65;100.00
18850;BME280;4989;48.772;9.154;2023-05-07T23:59:01;98239.22;;;18.66;100.00
